createdAt,value
2024-05-09T00:01:01.508Z,4.50
2024-05-09T00:03:48.564Z,4.80
2024-05-09T00:06:35.463Z,5.00
2024-05-09T00:09:22.886Z,5.90
2024-05-09T00:12:09.702Z,4.80
2024-05-09T00:14:57.238Z,4.90
2024-05-09T00:17:47.206Z,6.30
2024-05-09T00:20:38.990Z,4.50
2024-05-09T00:23:28.876Z,4.50
2024-05-09T00:26:19.088Z,4.70
2024-05-09T00:29:14.894Z,5.30
2024-05-09T00:32:02.125Z,4.70
2024-05-09T00:34:49.641Z,5.70
2024-05-09T00:37:36.498Z,5.50
2024-05-09T00:40:34.761Z,5.40
2024-05-09T00:43:29.165Z,4.70
2024-05-09T00:46:17.201Z,5.00
2024-05-09T00:49:05.214Z,5.60
2024-05-09T00:51:52.681Z,4.60
2024-05-09T00:54:42.752Z,5.10
2024-05-09T00:57:30.284Z,4.90
2024-05-09T01:00:26.607Z,4.90
2024-05-09T01:03:19.343Z,4.90
2024-05-09T01:06:07.321Z,4.90
2024-05-09T01:08:54.526Z,5.60
2024-05-09T01:11:42.008Z,5.80
2024-05-09T01:14:29.030Z,5.60
2024-05-09T01:17:16.212Z,5.20
2024-05-09T01:20:20.184Z,5.00
2024-05-09T01:23:15.866Z,4.60
2024-05-09T01:26:03.575Z,4.70
2024-05-09T01:28:50.522Z,4.40
2024-05-09T01:31:37.446Z,4.80
2024-05-09T01:34:25.597Z,4.70
2024-05-09T01:37:12.315Z,4.70
2024-05-09T01:39:59.328Z,4.90
2024-05-09T01:42:46.354Z,4.60
2024-05-09T01:45:33.991Z,4.90
2024-05-09T01:48:21.460Z,4.40
2024-05-09T01:51:08.922Z,4.10
2024-05-09T01:53:55.829Z,4.10
2024-05-09T01:56:42.742Z,4.50
2024-05-09T01:59:30.656Z,4.90
2024-05-09T02:02:17.978Z,5.00
2024-05-09T02:05:06.285Z,5.40
2024-05-09T02:07:53.546Z,5.20
2024-05-09T02:10:40.854Z,4.90
2024-05-09T02:13:27.721Z,4.90
2024-05-09T02:16:17.512Z,4.40
2024-05-09T02:19:04.735Z,4.50
2024-05-09T02:21:52.040Z,4.20
2024-05-09T02:24:38.635Z,4.10
2024-05-09T02:27:25.471Z,4.30
2024-05-09T02:30:18.975Z,4.60
2024-05-09T02:33:14.375Z,5.10
2024-05-09T02:36:01.871Z,4.70
2024-05-09T02:38:49.177Z,4.60
2024-05-09T02:41:45.726Z,4.30
2024-05-09T02:44:32.712Z,4.80
2024-05-09T02:47:20.275Z,5.20
2024-05-09T02:50:08.312Z,4.90
2024-05-09T02:52:55.350Z,5.00
2024-05-09T02:55:42.831Z,4.60
2024-05-09T02:58:32.635Z,4.30
2024-05-09T03:01:19.907Z,4.30
2024-05-09T03:04:07.235Z,5.40
2024-05-09T03:06:54.596Z,5.10
2024-05-09T03:09:46.732Z,4.70
2024-05-09T03:12:35.809Z,4.90
2024-05-09T03:15:23.830Z,5.50
2024-05-09T03:18:11.520Z,4.80
2024-05-09T03:20:59.254Z,4.80
2024-05-09T03:23:49.321Z,4.40
2024-05-09T03:26:36.217Z,5.00
2024-05-09T03:29:23.430Z,5.00
2024-05-09T03:32:21.945Z,5.30
2024-05-09T03:35:09.289Z,5.40
2024-05-09T03:37:56.045Z,5.30
2024-05-09T03:40:50.106Z,5.00
2024-05-09T03:43:38.046Z,4.50
2024-05-09T03:46:25.064Z,4.60
2024-05-09T03:49:12.695Z,5.10
2024-05-09T03:52:04.848Z,5.40
2024-05-09T03:54:52.355Z,4.60
2024-05-09T03:57:42.440Z,4.20
2024-05-09T04:00:36.941Z,6.60
2024-05-09T04:03:26.089Z,6.60
2024-05-09T04:06:20.267Z,5.30
2024-05-09T04:09:07.289Z,5.90
2024-05-09T04:11:54.699Z,5.70
2024-05-09T04:14:42.718Z,5.60
2024-05-09T04:17:30.262Z,6.20
2024-05-09T04:20:28.770Z,5.50
2024-05-09T04:23:23.189Z,5.20
2024-05-09T04:26:10.421Z,5.50
2024-05-09T04:28:58.322Z,5.30
2024-05-09T04:31:45.057Z,5.30
2024-05-09T04:34:34.036Z,4.80
2024-05-09T04:37:25.206Z,5.20
2024-05-09T04:40:23.982Z,4.80
2024-05-09T04:43:19.398Z,5.40
2024-05-09T04:46:06.848Z,5.40
2024-05-09T04:48:54.065Z,5.80
2024-05-09T04:51:41.577Z,5.40
2024-05-09T04:54:34.320Z,5.50
2024-05-09T04:57:24.108Z,4.70
2024-05-09T05:00:14.821Z,4.50
2024-05-09T05:03:12.607Z,4.90
2024-05-09T05:06:02.176Z,5.10
2024-05-09T05:08:49.272Z,4.70
2024-05-09T05:11:36.610Z,4.40
2024-05-09T05:14:24.047Z,4.60
2024-05-09T05:17:11.169Z,4.60
2024-05-09T05:20:01.768Z,4.80
2024-05-09T05:22:48.267Z,4.70
2024-05-09T05:25:35.563Z,4.90
2024-05-09T05:28:23.000Z,4.50
2024-05-09T05:31:10.029Z,4.10
2024-05-09T05:33:57.146Z,4.30
2024-05-09T05:36:44.129Z,4.20
2024-05-09T05:39:31.141Z,3.80
2024-05-09T05:42:17.877Z,3.60
2024-05-09T05:45:08.284Z,3.50
2024-05-09T05:47:57.232Z,4.30
2024-05-09T05:50:45.029Z,3.80
2024-05-09T05:53:32.201Z,3.90
2024-05-09T05:56:19.432Z,3.80
2024-05-09T05:59:06.554Z,3.30
2024-05-09T06:01:53.349Z,3.70
2024-05-09T06:04:40.491Z,3.70
2024-05-09T06:07:27.968Z,4.10
2024-05-09T06:10:21.394Z,4.00
2024-05-09T06:13:13.435Z,4.00
2024-05-09T06:16:02.006Z,3.40
2024-05-09T06:18:48.618Z,4.20
2024-05-09T06:21:35.926Z,4.40
2024-05-09T06:24:23.061Z,4.50
2024-05-09T06:27:10.576Z,4.40
2024-05-09T06:29:57.910Z,4.40
2024-05-09T06:32:44.833Z,4.80
2024-05-09T06:35:32.711Z,4.60
2024-05-09T06:38:20.221Z,4.60
2024-05-09T06:41:07.114Z,4.60
2024-05-09T06:43:54.758Z,3.60
2024-05-09T06:46:42.169Z,3.90
2024-05-09T06:49:31.469Z,3.80
2024-05-09T06:52:19.482Z,3.50
2024-05-09T06:55:07.177Z,4.10
2024-05-09T06:57:54.623Z,4.20
2024-05-09T07:00:42.480Z,4.10
2024-05-09T07:03:30.134Z,4.20
2024-05-09T07:06:17.258Z,4.40
2024-05-09T07:09:04.821Z,4.70
2024-05-09T07:11:51.813Z,4.80
2024-05-09T07:14:38.837Z,4.70
2024-05-09T07:17:27.203Z,3.60
2024-05-09T07:20:23.177Z,3.80
2024-05-09T07:23:16.027Z,3.40
2024-05-09T07:26:03.761Z,3.80
2024-05-09T07:28:50.654Z,3.10
2024-05-09T07:31:37.632Z,2.90
2024-05-09T07:34:25.054Z,2.80
2024-05-09T07:37:13.437Z,3.30
2024-05-09T07:40:00.626Z,3.10
2024-05-09T07:42:47.979Z,3.00
2024-05-09T07:50:00.456Z,2.40
2024-05-09T07:54:31.999Z,2.90
2024-05-09T07:57:19.619Z,2.60
2024-05-09T08:00:08.249Z,2.70
2024-05-09T08:02:58.979Z,2.70
2024-05-09T08:05:46.138Z,2.40
2024-05-09T08:08:33.209Z,2.80
2024-05-09T08:11:20.380Z,3.20
2024-05-09T08:14:07.311Z,2.60
2024-05-09T08:16:54.671Z,2.60
2024-05-09T08:19:41.851Z,2.80
2024-05-09T08:22:31.936Z,2.70
2024-05-09T08:25:18.775Z,2.70
2024-05-09T08:28:06.489Z,2.50
2024-05-09T08:30:53.757Z,2.50
2024-05-09T08:33:45.253Z,2.20
2024-05-09T08:36:33.406Z,3.90
2024-05-09T08:39:20.168Z,2.70
2024-05-09T08:42:08.314Z,2.80
2024-05-09T08:44:55.438Z,2.60
2024-05-09T08:47:42.849Z,2.70
2024-05-09T08:50:36.570Z,2.60
2024-05-09T08:53:26.011Z,2.30
2024-05-09T08:56:13.114Z,2.40
2024-05-09T08:59:01.356Z,2.50
2024-05-09T09:01:48.299Z,2.90
2024-05-09T09:04:35.807Z,2.40
2024-05-09T09:07:22.708Z,2.90
2024-05-09T09:10:12.989Z,2.30
2024-05-09T09:13:03.923Z,2.40
2024-05-09T09:15:52.026Z,2.60
2024-05-09T09:18:39.400Z,2.20
2024-05-09T09:21:26.856Z,2.50
2024-05-09T09:24:14.135Z,2.60
2024-05-09T09:27:01.457Z,2.40
2024-05-09T09:29:48.773Z,2.60
2024-05-09T09:32:35.797Z,2.40
2024-05-09T09:35:23.252Z,2.50
2024-05-09T09:38:10.956Z,2.30
2024-05-09T09:40:57.896Z,3.10
2024-05-09T09:43:44.577Z,2.50
2024-05-09T09:46:31.407Z,2.50
2024-05-09T09:49:18.956Z,2.40
2024-05-09T09:52:07.628Z,2.50
2024-05-09T09:54:56.392Z,2.40
2024-05-09T09:57:44.316Z,2.50
2024-05-09T10:00:33.405Z,2.90
2024-05-09T10:03:21.698Z,2.90
2024-05-09T10:06:09.581Z,2.80
2024-05-09T10:08:56.652Z,2.70
2024-05-09T10:11:49.184Z,2.70
2024-05-09T10:14:49.113Z,2.30
2024-05-09T10:17:36.539Z,2.80
2024-05-09T10:20:27.962Z,2.50
2024-05-09T10:23:27.183Z,2.50
2024-05-09T10:26:14.653Z,2.40
2024-05-09T10:29:24.006Z,2.50
2024-05-09T10:32:11.127Z,2.80
2024-05-09T10:35:07.255Z,2.50
2024-05-09T10:37:54.254Z,2.40
2024-05-09T10:40:41.609Z,2.20
2024-05-09T10:43:28.771Z,2.50
2024-05-09T10:46:16.033Z,2.40
2024-05-09T10:49:06.193Z,2.80
2024-05-09T10:51:54.783Z,2.40
2024-05-09T10:54:41.889Z,2.60
2024-05-09T10:57:37.432Z,2.20
2024-05-09T11:00:35.580Z,2.20
2024-05-09T11:03:24.716Z,2.30
2024-05-09T11:06:12.462Z,2.40
2024-05-09T11:09:00.116Z,2.40
2024-05-09T11:11:47.562Z,1.90
2024-05-09T11:14:34.853Z,2.20
2024-05-09T11:17:22.305Z,2.20
2024-05-09T11:20:16.713Z,2.40
2024-05-09T11:23:06.733Z,2.50
2024-05-09T11:25:55.290Z,2.50
2024-05-09T11:28:45.780Z,2.20
2024-05-09T11:34:20.584Z,2.40
2024-05-09T11:37:08.729Z,2.30
2024-05-09T11:39:56.122Z,2.30
2024-05-09T11:42:43.383Z,2.40
2024-05-09T11:45:30.603Z,2.50
2024-05-09T11:48:18.451Z,2.70
2024-05-09T11:51:05.690Z,2.80
2024-05-09T11:53:53.132Z,2.30
2024-05-09T11:56:40.468Z,2.40
2024-05-09T11:59:27.854Z,2.30
2024-05-09T12:02:15.020Z,2.00
2024-05-09T12:05:02.608Z,2.40
2024-05-09T12:07:53.408Z,2.40
2024-05-09T12:10:41.378Z,2.20
2024-05-09T12:13:28.736Z,2.30
2024-05-09T12:16:15.998Z,2.20
2024-05-09T12:19:03.754Z,2.10
2024-05-09T12:21:51.173Z,3.10
2024-05-09T12:24:38.436Z,4.20
2024-05-09T12:27:25.711Z,4.50
2024-05-09T12:30:20.711Z,2.80
2024-05-09T12:33:15.429Z,2.20
2024-05-09T12:36:03.239Z,2.20
2024-05-09T12:38:50.769Z,2.20
2024-05-09T12:41:37.867Z,2.20
2024-05-09T12:44:24.794Z,2.20
2024-05-09T12:47:12.322Z,2.20
2024-05-09T12:49:59.860Z,2.30
2024-05-09T12:52:46.493Z,1.90
2024-05-09T12:55:40.964Z,2.50
2024-05-09T12:58:35.837Z,2.10
2024-05-09T13:01:23.142Z,2.20
2024-05-09T13:04:10.288Z,2.30
2024-05-09T13:06:57.316Z,2.20
2024-05-09T13:09:44.029Z,2.30
2024-05-09T13:12:31.882Z,2.30
2024-05-09T13:15:19.502Z,2.10
2024-05-09T13:18:07.317Z,2.30
2024-05-09T13:20:54.648Z,2.20
2024-05-09T13:23:42.047Z,2.30
2024-05-09T13:26:28.861Z,2.10
2024-05-09T13:29:16.308Z,2.30
2024-05-09T13:32:04.115Z,2.40
2024-05-09T13:34:51.592Z,2.30
2024-05-09T13:37:38.751Z,2.60
2024-05-09T13:40:32.728Z,2.20
2024-05-09T13:46:09.983Z,2.20
2024-05-09T13:48:57.295Z,2.50
2024-05-09T13:51:44.663Z,2.20
2024-05-09T13:54:32.144Z,2.50
2024-05-09T13:57:19.364Z,2.00
2024-05-09T14:00:12.063Z,2.30
2024-05-09T14:03:02.571Z,2.30
2024-05-09T14:05:51.948Z,2.20
2024-05-09T14:08:39.487Z,2.60
2024-05-09T14:11:27.283Z,2.40
2024-05-09T14:14:14.538Z,2.30
2024-05-09T14:17:02.019Z,2.30
2024-05-09T14:19:49.288Z,2.20
2024-05-09T14:22:36.636Z,2.60
2024-05-09T14:25:26.055Z,2.90
2024-05-09T14:28:13.771Z,1.90
2024-05-09T14:31:01.644Z,2.50
2024-05-09T14:33:49.175Z,2.30
2024-05-09T14:36:36.646Z,2.30
2024-05-09T14:39:23.528Z,2.00
2024-05-09T14:42:10.828Z,2.30
2024-05-09T14:44:57.934Z,2.00
2024-05-09T14:47:44.830Z,2.10
2024-05-09T14:50:36.737Z,2.10
2024-05-09T14:53:27.897Z,2.40
2024-05-09T14:56:15.364Z,2.10
2024-05-09T14:59:03.394Z,2.10
2024-05-09T15:01:50.852Z,2.10
2024-05-09T15:04:38.434Z,2.00
2024-05-09T15:07:25.445Z,2.10
2024-05-09T15:10:20.337Z,2.10
2024-05-09T15:13:13.238Z,2.20
2024-05-09T15:16:01.902Z,2.20
2024-05-09T15:18:49.496Z,2.40
2024-05-09T15:21:37.140Z,2.20
2024-05-09T15:24:23.900Z,2.40
2024-05-09T15:27:11.796Z,2.30
2024-05-09T15:30:01.948Z,2.40
2024-05-09T15:32:49.222Z,2.20
2024-05-09T15:35:40.883Z,2.20
2024-05-09T15:38:27.901Z,2.20
2024-05-09T15:41:15.144Z,2.20
2024-05-09T15:44:02.140Z,2.20
2024-05-09T15:46:48.970Z,2.20
2024-05-09T15:49:35.990Z,2.30
2024-05-09T15:52:23.292Z,2.60
2024-05-09T15:55:10.188Z,2.40
2024-05-09T15:57:56.832Z,2.60
2024-05-09T16:00:46.291Z,2.30
2024-05-09T16:03:35.180Z,2.10
2024-05-09T16:06:23.070Z,2.40
2024-05-09T16:09:10.233Z,2.20
2024-05-09T16:11:57.038Z,2.50
2024-05-09T16:14:45.274Z,2.40
2024-05-09T16:17:32.717Z,2.20
2024-05-09T16:20:29.942Z,2.60
2024-05-09T16:23:26.479Z,2.40
2024-05-09T16:26:13.776Z,2.40
2024-05-09T16:29:01.251Z,2.40
2024-05-09T16:31:48.331Z,2.60
2024-05-09T16:34:35.989Z,2.40
2024-05-09T16:37:24.685Z,2.50
2024-05-09T16:40:21.996Z,2.50
2024-05-09T16:43:17.209Z,2.10
2024-05-09T16:46:08.591Z,2.60
2024-05-09T16:48:55.879Z,2.60
2024-05-09T16:51:43.457Z,2.10
2024-05-09T16:54:30.375Z,2.30
2024-05-09T16:57:17.602Z,2.40
2024-05-09T17:00:09.327Z,2.70
2024-05-09T17:02:59.362Z,2.20
2024-05-09T17:05:47.740Z,2.40
2024-05-09T17:08:36.877Z,2.60
2024-05-09T17:11:24.258Z,2.40
2024-05-09T17:14:11.710Z,2.50
2024-05-09T17:16:58.679Z,2.70
2024-05-09T17:19:47.206Z,2.40
2024-05-09T17:22:34.831Z,2.60
2024-05-09T17:25:22.481Z,2.40
2024-05-09T17:28:10.448Z,2.60
2024-05-09T17:30:58.514Z,2.80
2024-05-09T17:33:45.567Z,2.50
2024-05-09T17:36:33.141Z,2.70
2024-05-09T17:39:20.222Z,2.50
2024-05-09T17:42:07.111Z,2.60
2024-05-09T17:44:54.968Z,3.00
2024-05-09T17:47:42.440Z,2.70
2024-05-09T17:53:20.037Z,2.90
2024-05-09T17:56:07.999Z,2.70
2024-05-09T17:58:55.155Z,3.10
2024-05-09T18:01:42.698Z,3.40
2024-05-09T18:04:33.291Z,2.70
2024-05-09T18:07:20.993Z,3.10
2024-05-09T18:10:16.054Z,3.30
2024-05-09T18:13:10.801Z,3.50
2024-05-09T18:15:58.750Z,3.70
2024-05-09T18:18:46.402Z,3.40
2024-05-09T18:21:33.715Z,3.20
2024-05-09T18:24:22.203Z,3.60
2024-05-09T18:27:09.379Z,3.60
2024-05-09T18:29:56.591Z,3.60
2024-05-09T18:32:43.988Z,4.20
2024-05-09T18:35:31.064Z,3.40
2024-05-09T18:38:19.082Z,3.50
2024-05-09T18:41:06.155Z,3.20
2024-05-09T18:43:54.954Z,3.90
2024-05-09T18:46:41.664Z,4.10
2024-05-09T18:49:29.292Z,4.10
2024-05-09T18:52:16.312Z,3.90
2024-05-09T18:55:04.376Z,3.90
2024-05-09T18:57:51.512Z,4.10
2024-05-09T19:00:41.323Z,4.50
2024-05-09T19:03:30.894Z,4.40
2024-05-09T19:06:21.051Z,4.50
2024-05-09T19:09:09.982Z,4.60
2024-05-09T19:12:00.420Z,5.30
2024-05-09T19:14:47.773Z,4.90
2024-05-09T19:17:34.870Z,4.30
2024-05-09T19:20:28.617Z,4.30
2024-05-09T19:23:20.564Z,4.20
2024-05-09T19:26:08.331Z,4.40
2024-05-09T19:28:55.561Z,4.00
2024-05-09T19:31:42.263Z,3.60
2024-05-09T19:34:29.560Z,4.00
2024-05-09T19:37:16.713Z,4.40
2024-05-09T19:40:06.771Z,3.90
2024-05-09T19:42:55.610Z,3.80
2024-05-09T19:45:43.343Z,3.80
2024-05-09T19:48:30.735Z,4.00
2024-05-09T19:51:18.227Z,4.30
2024-05-09T19:54:04.936Z,3.80
2024-05-09T19:56:52.260Z,3.50
2024-05-09T19:59:38.770Z,3.50
2024-05-09T20:02:25.833Z,3.60
2024-05-09T20:05:12.577Z,3.80
2024-05-09T20:08:00.049Z,3.60
2024-05-09T20:10:47.101Z,3.30
2024-05-09T20:13:34.292Z,3.50
2024-05-09T20:16:21.543Z,3.20
2024-05-09T20:19:08.528Z,3.50
2024-05-09T20:21:55.584Z,3.20
2024-05-09T20:24:42.536Z,3.30
2024-05-09T20:27:30.135Z,3.00
2024-05-09T20:30:25.316Z,3.20
2024-05-09T20:33:18.993Z,3.30
2024-05-09T20:36:06.145Z,3.00
2024-05-09T20:38:53.560Z,4.10
2024-05-09T20:41:43.758Z,3.40
2024-05-09T20:44:34.254Z,3.50
2024-05-09T20:47:21.840Z,3.30
2024-05-09T20:50:20.164Z,3.30
2024-05-09T20:53:15.644Z,3.20
2024-05-09T20:56:02.896Z,3.30
2024-05-09T20:58:49.710Z,3.50
2024-05-09T21:01:36.767Z,3.20
2024-05-09T21:04:24.109Z,3.40
2024-05-09T21:07:12.047Z,3.20
2024-05-09T21:10:02.372Z,3.50
2024-05-09T21:12:49.955Z,3.50
2024-05-09T21:15:37.183Z,3.80
2024-05-09T21:18:24.527Z,3.40
2024-05-09T21:21:11.343Z,3.50
2024-05-09T21:23:58.167Z,3.50
2024-05-09T21:26:45.289Z,3.20
2024-05-09T21:29:32.398Z,3.50
2024-05-09T21:32:20.877Z,3.00
2024-05-09T21:35:07.972Z,3.30
2024-05-09T21:37:55.135Z,3.20
2024-05-09T21:40:42.385Z,3.40
2024-05-09T21:43:31.287Z,3.20
2024-05-09T21:46:18.293Z,3.40
2024-05-09T21:49:05.346Z,3.80
2024-05-09T21:51:52.549Z,3.50
2024-05-09T21:54:38.975Z,3.90
2024-05-09T21:57:25.818Z,3.50
2024-05-09T22:00:28.177Z,3.90
2024-05-09T22:03:22.044Z,3.70
2024-05-09T22:06:08.891Z,3.70
2024-05-09T22:08:56.227Z,3.90
2024-05-09T22:11:48.060Z,3.80
2024-05-09T22:14:36.801Z,4.00
2024-05-09T22:17:24.257Z,4.00
2024-05-09T22:20:18.083Z,4.50
2024-05-09T22:23:09.519Z,4.30
2024-05-09T22:25:56.855Z,4.20
2024-05-09T22:28:44.471Z,4.80
2024-05-09T22:31:31.943Z,4.20
2024-05-09T22:34:19.164Z,4.60
2024-05-09T22:37:06.460Z,5.20
2024-05-09T22:39:53.554Z,4.60
2024-05-09T22:42:41.112Z,3.90
2024-05-09T22:45:28.602Z,4.50
2024-05-09T22:48:15.748Z,4.60
2024-05-09T22:51:03.048Z,4.00
2024-05-09T22:53:49.861Z,4.70
2024-05-09T22:56:37.095Z,4.40
2024-05-09T22:59:23.887Z,4.50
2024-05-09T23:02:10.732Z,3.90
2024-05-09T23:04:58.124Z,4.50
2024-05-09T23:07:45.439Z,4.60
2024-05-09T23:10:36.656Z,4.60
2024-05-09T23:13:25.749Z,4.60
2024-05-09T23:16:13.532Z,4.70
2024-05-09T23:19:00.780Z,4.40
2024-05-09T23:21:47.826Z,4.50
2024-05-09T23:24:35.268Z,4.60
2024-05-09T23:27:22.034Z,4.90
2024-05-09T23:30:12.431Z,5.30
2024-05-09T23:33:02.439Z,4.80
2024-05-09T23:35:52.069Z,5.10
2024-05-09T23:38:40.318Z,5.60
2024-05-09T23:41:27.144Z,5.30
2024-05-09T23:44:14.459Z,6.00
2024-05-09T23:47:05.381Z,5.70
2024-05-09T23:49:56.115Z,5.80
2024-05-09T23:52:46.360Z,5.30
2024-05-09T23:55:36.527Z,5.30
2024-05-09T23:58:23.795Z,4.80
